sensor_id;sensor_type;location;lat;lon;timestamp;P1;durP1;ratioP1;P2;durP2;ratioP2
73130;SDS011;64204;13.766;100.702;2024-01-30T00:00:12;25.60;;;14.88;;
73130;SDS011;64204;13.766;100.702;2024-01-30T00:02:38;29.80;;;16.40;;
73130;SDS011;64204;13.766;100.702;2024-01-30T00:05:05;28.40;;;14.13;;
73130;SDS011;64204;13.766;100.702;2024-01-30T00:07:31;31.92;;;18.42;;
73130;SDS011;64204;13.766;100.702;2024-01-30T00:09:58;28.77;;;16.00;;
73130;SDS011;64204;13.766;100.702;2024-01-30T00:12:25;32.15;;;17.25;;
73130;SDS011;64204;13.766;100.702;2024-01-30T00:14:51;26.17;;;14.65;;
73130;SDS011;64204;13.766;100.702;2024-01-30T00:17:18;32.75;;;15.55;;
73130;SDS011;64204;13.766;100.702;2024-01-30T00:19:46;26.80;;;14.77;;
73130;SDS011;64204;13.766;100.702;2024-01-30T00:22:12;33.13;;;18.92;;
73130;SDS011;64204;13.766;100.702;2024-01-30T00:24:38;32.80;;;17.00;;
73130;SDS011;64204;13.766;100.702;2024-01-30T00:27:05;28.02;;;15.55;;
73130;SDS011;64204;13.766;100.702;2024-01-30T00:29:31;32.03;;;17.83;;
73130;SDS011;64204;13.766;100.702;2024-01-30T00:31:59;25.05;;;15.48;;
73130;SDS011;64204;13.766;100.702;2024-01-30T00:34:25;24.48;;;15.23;;
73130;SDS011;64204;13.766;100.702;2024-01-30T00:36:52;23.88;;;15.38;;
73130;SDS011;64204;13.766;100.702;2024-01-30T00:39:18;34.88;;;20.50;;
73130;SDS011;64204;13.766;100.702;2024-01-30T00:41:45;32.42;;;17.77;;
73130;SDS011;64204;13.766;100.702;2024-01-30T00:44:11;27.98;;;16.25;;
73130;SDS011;64204;13.766;100.702;2024-01-30T00:46:38;27.38;;;17.52;;
73130;SDS011;64204;13.766;100.702;2024-01-30T00:49:04;27.10;;;16.10;;
73130;SDS011;64204;13.766;100.702;2024-01-30T00:51:31;28.25;;;16.63;;
73130;SDS011;64204;13.766;100.702;2024-01-30T00:54:00;26.02;;;16.92;;
73130;SDS011;64204;13.766;100.702;2024-01-30T00:56:26;27.88;;;18.35;;
73130;SDS011;64204;13.766;100.702;2024-01-30T00:58:53;27.90;;;18.05;;
73130;SDS011;64204;13.766;100.702;2024-01-30T01:01:20;32.28;;;20.05;;
73130;SDS011;64204;13.766;100.702;2024-01-30T01:03:46;35.20;;;21.08;;
73130;SDS011;64204;13.766;100.702;2024-01-30T01:06:13;38.08;;;22.58;;
73130;SDS011;64204;13.766;100.702;2024-01-30T01:08:40;28.92;;;18.48;;
73130;SDS011;64204;13.766;100.702;2024-01-30T01:11:06;35.40;;;20.55;;
73130;SDS011;64204;13.766;100.702;2024-01-30T01:13:33;38.47;;;21.58;;
73130;SDS011;64204;13.766;100.702;2024-01-30T01:15:59;34.60;;;20.80;;
73130;SDS011;64204;13.766;100.702;2024-01-30T01:18:26;32.40;;;20.08;;
73130;SDS011;64204;13.766;100.702;2024-01-30T01:20:55;27.73;;;18.42;;
73130;SDS011;64204;13.766;100.702;2024-01-30T01:23:29;27.70;;;17.10;;
73130;SDS011;64204;13.766;100.702;2024-01-30T01:26:18;30.90;;;20.02;;
73130;SDS011;64204;13.766;100.702;2024-01-30T01:31:38;32.92;;;20.98;;
73130;SDS011;64204;13.766;100.702;2024-01-30T01:37:33;32.03;;;20.17;;
73130;SDS011;64204;13.766;100.702;2024-01-30T01:50:05;34.80;;;21.58;;
73130;SDS011;64204;13.766;100.702;2024-01-30T01:52:32;38.03;;;22.38;;
73130;SDS011;64204;13.766;100.702;2024-01-30T01:54:58;36.20;;;22.75;;
73130;SDS011;64204;13.766;100.702;2024-01-30T01:57:24;29.00;;;19.17;;
73130;SDS011;64204;13.766;100.702;2024-01-30T01:59:51;38.10;;;21.35;;
73130;SDS011;64204;13.766;100.702;2024-01-30T02:02:18;55.47;;;27.25;;
73130;SDS011;64204;13.766;100.702;2024-01-30T02:04:45;40.60;;;26.27;;
73130;SDS011;64204;13.766;100.702;2024-01-30T02:07:11;43.80;;;25.17;;
73130;SDS011;64204;13.766;100.702;2024-01-30T02:09:38;37.03;;;22.60;;
73130;SDS011;64204;13.766;100.702;2024-01-30T02:12:04;42.80;;;25.73;;
73130;SDS011;64204;13.766;100.702;2024-01-30T02:14:31;36.72;;;22.42;;
73130;SDS011;64204;13.766;100.702;2024-01-30T02:16:57;43.20;;;23.63;;
73130;SDS011;64204;13.766;100.702;2024-01-30T02:19:23;37.20;;;22.27;;
73130;SDS011;64204;13.766;100.702;2024-01-30T02:21:50;40.78;;;23.95;;
73130;SDS011;64204;13.766;100.702;2024-01-30T02:24:16;43.47;;;26.70;;
73130;SDS011;64204;13.766;100.702;2024-01-30T02:26:43;44.65;;;25.77;;
73130;SDS011;64204;13.766;100.702;2024-01-30T02:29:10;41.60;;;25.60;;
73130;SDS011;64204;13.766;100.702;2024-01-30T02:31:36;35.53;;;22.30;;
73130;SDS011;64204;13.766;100.702;2024-01-30T02:34:02;39.60;;;21.23;;
73130;SDS011;64204;13.766;100.702;2024-01-30T02:36:29;43.35;;;23.40;;
73130;SDS011;64204;13.766;100.702;2024-01-30T02:38:56;38.25;;;23.75;;
73130;SDS011;64204;13.766;100.702;2024-01-30T02:41:22;38.45;;;23.58;;
73130;SDS011;64204;13.766;100.702;2024-01-30T02:43:49;36.22;;;22.42;;
73130;SDS011;64204;13.766;100.702;2024-01-30T02:46:15;36.45;;;23.67;;
73130;SDS011;64204;13.766;100.702;2024-01-30T02:48:41;36.22;;;22.35;;
73130;SDS011;64204;13.766;100.702;2024-01-30T02:51:08;38.25;;;22.42;;
73130;SDS011;64204;13.766;100.702;2024-01-30T02:53:34;30.50;;;20.50;;
73130;SDS011;64204;13.766;100.702;2024-01-30T02:56:02;30.42;;;18.40;;
73130;SDS011;64204;13.766;100.702;2024-01-30T02:58:28;29.83;;;19.10;;
73130;SDS011;64204;13.766;100.702;2024-01-30T03:00:55;30.00;;;18.65;;
73130;SDS011;64204;13.766;100.702;2024-01-30T03:03:21;26.17;;;17.17;;
73130;SDS011;64204;13.766;100.702;2024-01-30T03:05:48;30.88;;;18.08;;
73130;SDS011;64204;13.766;100.702;2024-01-30T03:08:14;29.17;;;18.38;;
73130;SDS011;64204;13.766;100.702;2024-01-30T03:10:40;25.60;;;18.00;;
73130;SDS011;64204;13.766;100.702;2024-01-30T03:13:07;24.13;;;16.75;;
73130;SDS011;64204;13.766;100.702;2024-01-30T03:15:33;23.85;;;16.25;;
73130;SDS011;64204;13.766;100.702;2024-01-30T03:17:59;23.95;;;14.75;;
73130;SDS011;64204;13.766;100.702;2024-01-30T03:20:29;23.75;;;16.15;;
73130;SDS011;64204;13.766;100.702;2024-01-30T03:22:55;21.02;;;15.07;;
73130;SDS011;64204;13.766;100.702;2024-01-30T03:25:22;23.88;;;15.80;;
73130;SDS011;64204;13.766;100.702;2024-01-30T03:27:48;23.90;;;15.38;;
73130;SDS011;64204;13.766;100.702;2024-01-30T03:30:15;22.55;;;14.75;;
73130;SDS011;64204;13.766;100.702;2024-01-30T03:32:41;24.27;;;14.93;;
73130;SDS011;64204;13.766;100.702;2024-01-30T03:35:08;23.73;;;15.23;;
73130;SDS011;64204;13.766;100.702;2024-01-30T03:37:34;22.20;;;14.77;;
73130;SDS011;64204;13.766;100.702;2024-01-30T03:40:01;21.10;;;14.07;;
73130;SDS011;64204;13.766;100.702;2024-01-30T03:42:28;22.52;;;14.40;;
73130;SDS011;64204;13.766;100.702;2024-01-30T03:44:56;19.13;;;14.05;;
73130;SDS011;64204;13.766;100.702;2024-01-30T03:47:22;21.70;;;14.07;;
73130;SDS011;64204;13.766;100.702;2024-01-30T03:49:48;22.55;;;14.60;;
73130;SDS011;64204;13.766;100.702;2024-01-30T03:52:15;23.08;;;14.18;;
73130;SDS011;64204;13.766;100.702;2024-01-30T03:54:41;20.55;;;13.43;;
73130;SDS011;64204;13.766;100.702;2024-01-30T03:57:08;21.02;;;13.98;;
73130;SDS011;64204;13.766;100.702;2024-01-30T03:59:34;23.90;;;13.90;;
73130;SDS011;64204;13.766;100.702;2024-01-30T04:02:01;22.70;;;14.60;;
73130;SDS011;64204;13.766;100.702;2024-01-30T04:04:27;22.35;;;14.32;;
73130;SDS011;64204;13.766;100.702;2024-01-30T04:06:53;20.27;;;13.02;;
73130;SDS011;64204;13.766;100.702;2024-01-30T04:09:20;24.40;;;14.77;;
73130;SDS011;64204;13.766;100.702;2024-01-30T04:11:46;20.20;;;13.57;;
73130;SDS011;64204;13.766;100.702;2024-01-30T04:14:13;17.80;;;12.88;;
73130;SDS011;64204;13.766;100.702;2024-01-30T04:16:39;18.63;;;13.35;;
73130;SDS011;64204;13.766;100.702;2024-01-30T04:19:05;21.23;;;14.70;;
73130;SDS011;64204;13.766;100.702;2024-01-30T04:21:32;27.20;;;14.23;;
73130;SDS011;64204;13.766;100.702;2024-01-30T04:23:58;20.00;;;13.73;;
73130;SDS011;64204;13.766;100.702;2024-01-30T04:26:24;18.90;;;12.68;;
73130;SDS011;64204;13.766;100.702;2024-01-30T04:28:51;22.33;;;14.60;;
73130;SDS011;64204;13.766;100.702;2024-01-30T04:31:17;19.92;;;13.45;;
73130;SDS011;64204;13.766;100.702;2024-01-30T04:33:44;25.45;;;13.75;;
73130;SDS011;64204;13.766;100.702;2024-01-30T04:36:10;16.48;;;11.57;;
73130;SDS011;64204;13.766;100.702;2024-01-30T04:38:37;16.75;;;12.68;;
73130;SDS011;64204;13.766;100.702;2024-01-30T04:41:04;20.95;;;13.15;;
73130;SDS011;64204;13.766;100.702;2024-01-30T04:43:31;19.80;;;14.15;;
73130;SDS011;64204;13.766;100.702;2024-01-30T04:45:57;19.85;;;13.38;;
73130;SDS011;64204;13.766;100.702;2024-01-30T04:48:23;25.15;;;17.60;;
73130;SDS011;64204;13.766;100.702;2024-01-30T04:50:50;19.05;;;13.82;;
73130;SDS011;64204;13.766;100.702;2024-01-30T04:53:16;22.95;;;14.00;;
73130;SDS011;64204;13.766;100.702;2024-01-30T04:55:43;22.60;;;14.57;;
73130;SDS011;64204;13.766;100.702;2024-01-30T04:58:09;16.58;;;12.35;;
73130;SDS011;64204;13.766;100.702;2024-01-30T05:00:36;18.95;;;13.43;;
73130;SDS011;64204;13.766;100.702;2024-01-30T05:03:02;23.13;;;13.93;;
73130;SDS011;64204;13.766;100.702;2024-01-30T05:05:29;21.65;;;14.07;;
73130;SDS011;64204;13.766;100.702;2024-01-30T05:07:55;22.10;;;14.27;;
73130;SDS011;64204;13.766;100.702;2024-01-30T05:10:22;16.67;;;13.07;;
73130;SDS011;64204;13.766;100.702;2024-01-30T05:12:48;22.88;;;14.75;;
73130;SDS011;64204;13.766;100.702;2024-01-30T05:15:15;19.42;;;13.43;;
73130;SDS011;64204;13.766;100.702;2024-01-30T05:17:41;20.98;;;13.23;;
73130;SDS011;64204;13.766;100.702;2024-01-30T05:20:08;19.13;;;13.82;;
73130;SDS011;64204;13.766;100.702;2024-01-30T05:22:36;16.60;;;12.88;;
73130;SDS011;64204;13.766;100.702;2024-01-30T05:25:02;19.13;;;12.65;;
73130;SDS011;64204;13.766;100.702;2024-01-30T05:27:30;19.13;;;14.32;;
73130;SDS011;64204;13.766;100.702;2024-01-30T05:29:56;17.52;;;12.85;;
73130;SDS011;64204;13.766;100.702;2024-01-30T05:32:23;19.33;;;13.10;;
73130;SDS011;64204;13.766;100.702;2024-01-30T05:34:49;19.67;;;12.98;;
73130;SDS011;64204;13.766;100.702;2024-01-30T05:37:15;17.52;;;12.98;;
73130;SDS011;64204;13.766;100.702;2024-01-30T05:39:43;17.73;;;13.13;;
73130;SDS011;64204;13.766;100.702;2024-01-30T05:42:09;15.90;;;11.43;;
73130;SDS011;64204;13.766;100.702;2024-01-30T05:44:35;16.45;;;11.38;;
73130;SDS011;64204;13.766;100.702;2024-01-30T05:47:02;19.85;;;13.50;;
73130;SDS011;64204;13.766;100.702;2024-01-30T05:49:28;17.13;;;11.68;;
73130;SDS011;64204;13.766;100.702;2024-01-30T05:51:55;16.58;;;13.15;;
73130;SDS011;64204;13.766;100.702;2024-01-30T05:54:21;21.85;;;15.23;;
73130;SDS011;64204;13.766;100.702;2024-01-30T05:56:48;17.17;;;12.52;;
73130;SDS011;64204;13.766;100.702;2024-01-30T05:59:14;16.38;;;11.90;;
73130;SDS011;64204;13.766;100.702;2024-01-30T06:01:47;15.70;;;11.45;;
73130;SDS011;64204;13.766;100.702;2024-01-30T06:04:14;15.13;;;11.45;;
73130;SDS011;64204;13.766;100.702;2024-01-30T06:06:41;16.00;;;12.82;;
73130;SDS011;64204;13.766;100.702;2024-01-30T06:09:07;16.85;;;12.45;;
73130;SDS011;64204;13.766;100.702;2024-01-30T06:11:34;21.70;;;13.63;;
73130;SDS011;64204;13.766;100.702;2024-01-30T06:14:01;19.70;;;12.10;;
73130;SDS011;64204;13.766;100.702;2024-01-30T06:16:27;16.35;;;12.73;;
73130;SDS011;64204;13.766;100.702;2024-01-30T06:18:58;16.98;;;11.02;;
73130;SDS011;64204;13.766;100.702;2024-01-30T06:21:25;15.63;;;11.18;;
73130;SDS011;64204;13.766;100.702;2024-01-30T06:23:51;16.65;;;11.90;;
73130;SDS011;64204;13.766;100.702;2024-01-30T06:26:18;15.77;;;12.23;;
73130;SDS011;64204;13.766;100.702;2024-01-30T06:28:44;19.45;;;12.65;;
73130;SDS011;64204;13.766;100.702;2024-01-30T06:31:11;17.95;;;12.15;;
73130;SDS011;64204;13.766;100.702;2024-01-30T06:33:37;18.38;;;12.80;;
73130;SDS011;64204;13.766;100.702;2024-01-30T06:36:03;17.17;;;12.88;;
73130;SDS011;64204;13.766;100.702;2024-01-30T06:38:30;16.70;;;12.32;;
73130;SDS011;64204;13.766;100.702;2024-01-30T06:40:56;16.48;;;11.75;;
73130;SDS011;64204;13.766;100.702;2024-01-30T06:43:23;16.98;;;10.90;;
73130;SDS011;64204;13.766;100.702;2024-01-30T06:45:49;19.77;;;12.02;;
73130;SDS011;64204;13.766;100.702;2024-01-30T06:48:17;20.63;;;13.07;;
73130;SDS011;64204;13.766;100.702;2024-01-30T06:50:43;14.65;;;11.85;;
73130;SDS011;64204;13.766;100.702;2024-01-30T06:53:10;17.17;;;12.32;;
73130;SDS011;64204;13.766;100.702;2024-01-30T06:55:37;15.77;;;11.20;;
73130;SDS011;64204;13.766;100.702;2024-01-30T06:58:03;17.33;;;12.85;;
73130;SDS011;64204;13.766;100.702;2024-01-30T07:00:30;16.02;;;10.90;;
73130;SDS011;64204;13.766;100.702;2024-01-30T07:02:57;15.25;;;11.85;;
73130;SDS011;64204;13.766;100.702;2024-01-30T07:05:23;17.20;;;12.82;;
73130;SDS011;64204;13.766;100.702;2024-01-30T07:07:49;19.10;;;12.98;;
73130;SDS011;64204;13.766;100.702;2024-01-30T07:10:16;18.15;;;13.52;;
73130;SDS011;64204;13.766;100.702;2024-01-30T07:12:42;17.02;;;11.93;;
73130;SDS011;64204;13.766;100.702;2024-01-30T07:15:09;14.68;;;11.50;;
73130;SDS011;64204;13.766;100.702;2024-01-30T07:17:35;22.00;;;13.63;;
73130;SDS011;64204;13.766;100.702;2024-01-30T07:20:02;20.15;;;13.40;;
73130;SDS011;64204;13.766;100.702;2024-01-30T07:22:30;18.65;;;12.35;;
73130;SDS011;64204;13.766;100.702;2024-01-30T07:24:56;17.42;;;13.18;;
73130;SDS011;64204;13.766;100.702;2024-01-30T07:27:23;16.95;;;12.90;;
73130;SDS011;64204;13.766;100.702;2024-01-30T07:29:49;18.15;;;12.98;;
73130;SDS011;64204;13.766;100.702;2024-01-30T07:32:15;17.65;;;13.02;;
73130;SDS011;64204;13.766;100.702;2024-01-30T07:34:42;21.60;;;13.75;;
73130;SDS011;64204;13.766;100.702;2024-01-30T07:37:08;16.55;;;13.30;;
73130;SDS011;64204;13.766;100.702;2024-01-30T07:39:36;19.42;;;13.75;;
73130;SDS011;64204;13.766;100.702;2024-01-30T07:42:02;18.08;;;13.10;;
73130;SDS011;64204;13.766;100.702;2024-01-30T07:44:29;18.08;;;14.43;;
73130;SDS011;64204;13.766;100.702;2024-01-30T07:46:55;21.15;;;13.88;;
73130;SDS011;64204;13.766;100.702;2024-01-30T07:49:22;18.85;;;12.77;;
73130;SDS011;64204;13.766;100.702;2024-01-30T07:51:49;20.35;;;13.02;;
73130;SDS011;64204;13.766;100.702;2024-01-30T07:54:15;14.98;;;11.52;;
73130;SDS011;64204;13.766;100.702;2024-01-30T07:56:41;23.75;;;15.38;;
73130;SDS011;64204;13.766;100.702;2024-01-30T07:59:11;22.95;;;15.75;;
73130;SDS011;64204;13.766;100.702;2024-01-30T08:01:38;17.67;;;12.80;;
73130;SDS011;64204;13.766;100.702;2024-01-30T08:04:04;20.05;;;14.32;;
73130;SDS011;64204;13.766;100.702;2024-01-30T08:06:31;16.33;;;12.73;;
73130;SDS011;64204;13.766;100.702;2024-01-30T08:08:57;20.95;;;16.65;;
73130;SDS011;64204;13.766;100.702;2024-01-30T08:11:24;22.55;;;14.52;;
73130;SDS011;64204;13.766;100.702;2024-01-30T08:13:52;20.60;;;14.60;;
73130;SDS011;64204;13.766;100.702;2024-01-30T08:16:19;18.75;;;13.65;;
73130;SDS011;64204;13.766;100.702;2024-01-30T08:18:45;20.63;;;13.43;;
73130;SDS011;64204;13.766;100.702;2024-01-30T08:21:11;16.52;;;11.48;;
73130;SDS011;64204;13.766;100.702;2024-01-30T08:23:41;18.33;;;14.07;;
73130;SDS011;64204;13.766;100.702;2024-01-30T08:26:08;19.63;;;14.25;;
73130;SDS011;64204;13.766;100.702;2024-01-30T08:28:34;21.05;;;13.02;;
73130;SDS011;64204;13.766;100.702;2024-01-30T08:31:01;20.05;;;14.07;;
73130;SDS011;64204;13.766;100.702;2024-01-30T08:33:27;19.42;;;13.80;;
73130;SDS011;64204;13.766;100.702;2024-01-30T08:35:53;19.30;;;15.00;;
73130;SDS011;64204;13.766;100.702;2024-01-30T08:38:20;24.20;;;15.25;;
73130;SDS011;64204;13.766;100.702;2024-01-30T08:40:46;18.88;;;14.55;;
73130;SDS011;64204;13.766;100.702;2024-01-30T08:43:13;21.65;;;14.65;;
73130;SDS011;64204;13.766;100.702;2024-01-30T08:45:40;21.48;;;13.45;;
73130;SDS011;64204;13.766;100.702;2024-01-30T08:48:07;18.27;;;13.05;;
73130;SDS011;64204;13.766;100.702;2024-01-30T08:50:34;21.58;;;16.00;;
73130;SDS011;64204;13.766;100.702;2024-01-30T08:53:00;21.30;;;15.05;;
73130;SDS011;64204;13.766;100.702;2024-01-30T08:55:26;18.77;;;13.63;;
73130;SDS011;64204;13.766;100.702;2024-01-30T08:57:53;20.33;;;14.23;;
73130;SDS011;64204;13.766;100.702;2024-01-30T09:00:19;23.75;;;15.05;;
73130;SDS011;64204;13.766;100.702;2024-01-30T09:02:46;17.85;;;13.18;;
73130;SDS011;64204;13.766;100.702;2024-01-30T09:05:12;21.63;;;15.40;;
73130;SDS011;64204;13.766;100.702;2024-01-30T09:07:38;23.48;;;14.18;;
73130;SDS011;64204;13.766;100.702;2024-01-30T09:10:06;20.95;;;16.50;;
73130;SDS011;64204;13.766;100.702;2024-01-30T09:12:32;20.70;;;14.88;;
73130;SDS011;64204;13.766;100.702;2024-01-30T09:14:59;20.10;;;15.30;;
73130;SDS011;64204;13.766;100.702;2024-01-30T09:17:26;20.45;;;15.20;;
73130;SDS011;64204;13.766;100.702;2024-01-30T09:19:52;23.30;;;15.50;;
73130;SDS011;64204;13.766;100.702;2024-01-30T09:22:18;22.88;;;15.75;;
73130;SDS011;64204;13.766;100.702;2024-01-30T09:24:45;22.63;;;15.88;;
73130;SDS011;64204;13.766;100.702;2024-01-30T09:27:11;22.55;;;15.15;;
73130;SDS011;64204;13.766;100.702;2024-01-30T09:29:38;18.92;;;14.65;;
73130;SDS011;64204;13.766;100.702;2024-01-30T09:32:04;19.17;;;13.38;;
73130;SDS011;64204;13.766;100.702;2024-01-30T09:34:32;21.75;;;15.30;;
73130;SDS011;64204;13.766;100.702;2024-01-30T09:36:59;18.55;;;14.00;;
73130;SDS011;64204;13.766;100.702;2024-01-30T09:39:26;19.75;;;13.32;;
73130;SDS011;64204;13.766;100.702;2024-01-30T09:42:00;21.20;;;15.50;;
73130;SDS011;64204;13.766;100.702;2024-01-30T09:44:31;25.40;;;16.90;;
73130;SDS011;64204;13.766;100.702;2024-01-30T09:47:02;20.45;;;15.82;;
73130;SDS011;64204;13.766;100.702;2024-01-30T09:49:33;25.67;;;18.80;;
73130;SDS011;64204;13.766;100.702;2024-01-30T09:52:03;25.33;;;18.35;;
73130;SDS011;64204;13.766;100.702;2024-01-30T09:54:31;28.45;;;17.77;;
73130;SDS011;64204;13.766;100.702;2024-01-30T09:56:58;31.92;;;18.25;;
73130;SDS011;64204;13.766;100.702;2024-01-30T09:59:24;24.77;;;17.98;;
73130;SDS011;64204;13.766;100.702;2024-01-30T10:01:51;29.02;;;18.88;;
73130;SDS011;64204;13.766;100.702;2024-01-30T10:04:18;27.60;;;19.02;;
73130;SDS011;64204;13.766;100.702;2024-01-30T10:06:44;33.88;;;19.00;;
73130;SDS011;64204;13.766;100.702;2024-01-30T10:09:11;30.30;;;19.17;;
73130;SDS011;64204;13.766;100.702;2024-01-30T10:11:38;25.60;;;17.00;;
73130;SDS011;64204;13.766;100.702;2024-01-30T10:14:05;25.45;;;16.52;;
73130;SDS011;64204;13.766;100.702;2024-01-30T10:16:31;27.95;;;18.15;;
73130;SDS011;64204;13.766;100.702;2024-01-30T10:18:58;18.85;;;13.52;;
73130;SDS011;64204;13.766;100.702;2024-01-30T10:21:25;22.80;;;14.93;;
73130;SDS011;64204;13.766;100.702;2024-01-30T10:23:51;24.13;;;14.25;;
73130;SDS011;64204;13.766;100.702;2024-01-30T10:26:18;19.05;;;13.32;;
73130;SDS011;64204;13.766;100.702;2024-01-30T10:28:45;23.35;;;12.82;;
73130;SDS011;64204;13.766;100.702;2024-01-30T10:31:15;18.52;;;12.82;;
73130;SDS011;64204;13.766;100.702;2024-01-30T10:33:48;17.15;;;11.68;;
73130;SDS011;64204;13.766;100.702;2024-01-30T10:36:14;16.35;;;11.35;;
73130;SDS011;64204;13.766;100.702;2024-01-30T10:38:42;19.63;;;12.40;;
73130;SDS011;64204;13.766;100.702;2024-01-30T10:41:10;17.33;;;11.02;;
73130;SDS011;64204;13.766;100.702;2024-01-30T10:43:40;16.85;;;11.68;;
73130;SDS011;64204;13.766;100.702;2024-01-30T10:46:11;15.57;;;10.65;;
73130;SDS011;64204;13.766;100.702;2024-01-30T10:48:43;20.08;;;11.68;;
73130;SDS011;64204;13.766;100.702;2024-01-30T10:51:14;17.58;;;12.50;;
73130;SDS011;64204;13.766;100.702;2024-01-30T10:53:41;16.63;;;11.57;;
73130;SDS011;64204;13.766;100.702;2024-01-30T10:56:08;20.02;;;12.98;;
73130;SDS011;64204;13.766;100.702;2024-01-30T10:58:36;22.60;;;16.42;;
73130;SDS011;64204;13.766;100.702;2024-01-30T11:01:03;25.55;;;17.40;;
73130;SDS011;64204;13.766;100.702;2024-01-30T11:03:30;27.98;;;18.52;;
73130;SDS011;64204;13.766;100.702;2024-01-30T11:05:59;25.08;;;17.58;;
73130;SDS011;64204;13.766;100.702;2024-01-30T11:08:27;23.30;;;16.33;;
73130;SDS011;64204;13.766;100.702;2024-01-30T11:10:57;23.85;;;15.55;;
73130;SDS011;64204;13.766;100.702;2024-01-30T11:13:28;23.15;;;15.57;;
73130;SDS011;64204;13.766;100.702;2024-01-30T11:15:55;18.77;;;13.57;;
73130;SDS011;64204;13.766;100.702;2024-01-30T11:18:28;24.83;;;15.88;;
73130;SDS011;64204;13.766;100.702;2024-01-30T11:20:58;20.65;;;15.25;;
73130;SDS011;64204;13.766;100.702;2024-01-30T11:23:30;22.48;;;16.02;;
73130;SDS011;64204;13.766;100.702;2024-01-30T11:25:58;20.50;;;14.38;;
73130;SDS011;64204;13.766;100.702;2024-01-30T11:28:25;20.15;;;13.85;;
73130;SDS011;64204;13.766;100.702;2024-01-30T11:31:05;20.83;;;14.85;;
73130;SDS011;64204;13.766;100.702;2024-01-30T11:33:37;17.75;;;13.15;;
73130;SDS011;64204;13.766;100.702;2024-01-30T11:36:04;18.08;;;12.88;;
73130;SDS011;64204;13.766;100.702;2024-01-30T11:38:32;24.48;;;13.77;;
73130;SDS011;64204;13.766;100.702;2024-01-30T11:40:58;22.05;;;15.20;;
73130;SDS011;64204;13.766;100.702;2024-01-30T11:45:53;25.42;;;16.58;;
73130;SDS011;64204;13.766;100.702;2024-01-30T11:48:19;21.70;;;16.02;;
73130;SDS011;64204;13.766;100.702;2024-01-30T11:50:46;23.00;;;16.08;;
73130;SDS011;64204;13.766;100.702;2024-01-30T11:53:12;25.95;;;17.13;;
73130;SDS011;64204;13.766;100.702;2024-01-30T11:55:39;25.90;;;17.25;;
73130;SDS011;64204;13.766;100.702;2024-01-30T11:58:06;22.15;;;15.25;;
73130;SDS011;64204;13.766;100.702;2024-01-30T12:00:32;27.45;;;18.17;;
73130;SDS011;64204;13.766;100.702;2024-01-30T12:02:59;25.50;;;17.75;;
73130;SDS011;64204;13.766;100.702;2024-01-30T12:05:26;26.35;;;17.42;;
73130;SDS011;64204;13.766;100.702;2024-01-30T12:07:53;25.40;;;16.20;;
73130;SDS011;64204;13.766;100.702;2024-01-30T12:10:20;31.98;;;16.92;;
73130;SDS011;64204;13.766;100.702;2024-01-30T12:12:48;24.70;;;17.23;;
73130;SDS011;64204;13.766;100.702;2024-01-30T12:15:16;25.23;;;16.92;;
73130;SDS011;64204;13.766;100.702;2024-01-30T12:17:42;24.83;;;17.45;;
73130;SDS011;64204;13.766;100.702;2024-01-30T12:20:18;18.70;;;13.27;;
73130;SDS011;64204;13.766;100.702;2024-01-30T12:22:47;20.55;;;13.65;;
73130;SDS011;64204;13.766;100.702;2024-01-30T12:25:15;23.05;;;16.27;;
73130;SDS011;64204;13.766;100.702;2024-01-30T12:27:46;27.25;;;16.50;;
73130;SDS011;64204;13.766;100.702;2024-01-30T12:30:17;29.00;;;16.85;;
73130;SDS011;64204;13.766;100.702;2024-01-30T12:32:45;24.92;;;14.07;;
73130;SDS011;64204;13.766;100.702;2024-01-30T12:35:19;25.52;;;15.57;;
73130;SDS011;64204;13.766;100.702;2024-01-30T12:37:47;23.80;;;16.27;;
73130;SDS011;64204;13.766;100.702;2024-01-30T12:40:14;23.25;;;15.68;;
73130;SDS011;64204;13.766;100.702;2024-01-30T12:42:41;24.15;;;15.95;;
73130;SDS011;64204;13.766;100.702;2024-01-30T12:45:11;22.45;;;15.52;;
73130;SDS011;64204;13.766;100.702;2024-01-30T12:47:40;18.85;;;13.43;;
73130;SDS011;64204;13.766;100.702;2024-01-30T12:50:06;19.55;;;13.45;;
73130;SDS011;64204;13.766;100.702;2024-01-30T12:52:34;18.98;;;13.13;;
73130;SDS011;64204;13.766;100.702;2024-01-30T12:55:01;27.65;;;16.83;;
73130;SDS011;64204;13.766;100.702;2024-01-30T12:57:29;17.42;;;12.48;;
73130;SDS011;64204;13.766;100.702;2024-01-30T12:59:55;19.48;;;12.80;;
73130;SDS011;64204;13.766;100.702;2024-01-30T13:02:22;14.25;;;11.70;;
73130;SDS011;64204;13.766;100.702;2024-01-30T13:04:49;16.85;;;12.57;;
73130;SDS011;64204;13.766;100.702;2024-01-30T13:07:15;20.50;;;14.55;;
73130;SDS011;64204;13.766;100.702;2024-01-30T13:09:42;22.15;;;15.20;;
73130;SDS011;64204;13.766;100.702;2024-01-30T13:12:08;17.10;;;12.10;;
73130;SDS011;64204;13.766;100.702;2024-01-30T13:14:35;16.10;;;12.88;;
73130;SDS011;64204;13.766;100.702;2024-01-30T13:17:01;16.88;;;11.88;;
73130;SDS011;64204;13.766;100.702;2024-01-30T13:19:28;17.85;;;11.20;;
73130;SDS011;64204;13.766;100.702;2024-01-30T13:21:54;19.73;;;14.07;;
73130;SDS011;64204;13.766;100.702;2024-01-30T13:24:21;21.00;;;12.85;;
73130;SDS011;64204;13.766;100.702;2024-01-30T13:26:47;18.80;;;13.07;;
73130;SDS011;64204;13.766;100.702;2024-01-30T13:29:14;31.90;;;20.60;;
73130;SDS011;64204;13.766;100.702;2024-01-30T13:31:40;22.70;;;14.70;;
73130;SDS011;64204;13.766;100.702;2024-01-30T13:34:07;24.73;;;16.55;;
73130;SDS011;64204;13.766;100.702;2024-01-30T13:36:33;21.67;;;13.73;;
73130;SDS011;64204;13.766;100.702;2024-01-30T13:39:00;35.15;;;20.77;;
73130;SDS011;64204;13.766;100.702;2024-01-30T13:41:26;30.48;;;19.85;;
73130;SDS011;64204;13.766;100.702;2024-01-30T13:43:52;37.22;;;22.73;;
73130;SDS011;64204;13.766;100.702;2024-01-30T13:46:19;38.58;;;24.02;;
73130;SDS011;64204;13.766;100.702;2024-01-30T13:48:46;44.88;;;28.10;;
73130;SDS011;64204;13.766;100.702;2024-01-30T13:51:15;44.03;;;27.13;;
73130;SDS011;64204;13.766;100.702;2024-01-30T13:53:42;41.00;;;26.45;;
73130;SDS011;64204;13.766;100.702;2024-01-30T13:56:10;34.95;;;24.70;;
73130;SDS011;64204;13.766;100.702;2024-01-30T13:58:37;37.20;;;25.67;;
73130;SDS011;64204;13.766;100.702;2024-01-30T14:01:06;35.25;;;25.17;;
73130;SDS011;64204;13.766;100.702;2024-01-30T14:03:33;35.88;;;25.55;;
73130;SDS011;64204;13.766;100.702;2024-01-30T14:05:59;38.05;;;24.55;;
73130;SDS011;64204;13.766;100.702;2024-01-30T14:08:26;40.95;;;25.60;;
73130;SDS011;64204;13.766;100.702;2024-01-30T14:10:54;41.45;;;26.02;;
73130;SDS011;64204;13.766;100.702;2024-01-30T14:13:21;37.72;;;25.63;;